Time;durP1;ratioP1;P1;durP2;ratioP2;P2;SDS_P1;SDS_P2;PMS_P1;PMS_P2;Temp;Humidity;BMP_temperature;BMP_pressure;BME280_temperature;BME280_humidity;BME280_pressure;Samples;Min_cycle;Max_cycle;Signal;HPM_P1;HPM_P2
2023/12/03 00:00:56;;;;;;;16.73;3.10;;;;;;;16.40;45.28;63693.09;5023601;28;20375;-79
2023/12/03 00:03:24;;;;;;;4.90;2.25;;;;;;;16.43;45.71;63695.69;5022322;28;20222;-79
2023/12/03 00:05:51;;;;;;;13.57;2.10;;;;;;;16.38;45.88;63693.06;5029222;28;20385;-78
2023/12/03 00:08:18;;;;;;;10.38;2.13;;;;;;;16.30;45.92;63682.69;5024045;28;20241;-79
2023/12/03 00:10:45;;;;;;;12.70;3.25;;;;;;;16.32;46.25;63684.78;5025219;28;20253;-79
2023/12/03 00:13:14;;;;;;;8.30;2.72;;;;;;;16.32;46.31;63684.78;5027124;28;20224;-79
2023/12/03 00:15:41;;;;;;;13.00;3.28;;;;;;;16.33;46.51;63685.28;5027235;28;20242;-79
2023/12/03 00:18:08;;;;;;;14.15;3.88;;;;;;;16.28;46.54;63678.03;5024414;28;20747;-79
2023/12/03 00:20:35;;;;;;;11.80;2.80;;;;;;;16.16;46.93;63671.22;5027348;28;20204;-81
2023/12/03 00:23:03;;;;;;;13.77;2.92;;;;;;;16.17;47.39;63666.59;5027621;28;20245;-80
2023/12/03 00:25:30;;;;;;;11.48;2.75;;;;;;;16.14;47.42;63666.03;5023739;28;20205;-78
2023/12/03 00:27:57;;;;;;;11.43;1.90;;;;;;;16.12;47.41;63663.97;5024854;28;20299;-79
2023/12/03 00:30:26;;;;;;;13.27;3.00;;;;;;;16.09;47.97;63658.28;5021942;28;20258;-79
2023/12/03 00:32:53;;;;;;;13.85;3.00;;;;;;;16.12;47.96;63661.41;5021685;28;20230;-80
2023/12/03 00:35:20;;;;;;;6.97;2.55;;;;;;;16.03;48.07;63655.13;5023262;28;20206;-80
2023/12/03 00:37:47;;;;;;;8.63;2.47;;;;;;;16.08;48.16;63662.91;5027818;28;20252;-77
2023/12/03 00:40:14;;;;;;;13.27;2.85;;;;;;;16.02;48.23;63651.53;5021087;28;20206;-78
2023/12/03 00:42:41;;;;;;;10.65;2.78;;;;;;;16.02;48.27;63654.09;5027166;28;20229;-79
2023/12/03 00:45:09;;;;;;;12.55;2.95;;;;;;;15.97;48.46;63648.38;5024931;28;20198;-79
2023/12/03 00:47:37;;;;;;;6.97;2.58;;;;;;;16.01;48.33;63650.47;5024983;28;20496;-79
2023/12/03 00:50:05;;;;;;;9.52;2.65;;;;;;;15.98;48.79;63646.84;5019815;28;20217;-79
2023/12/03 00:52:32;;;;;;;9.95;2.20;;;;;;;15.91;48.47;63642.13;5024296;28;20246;-80
2023/12/03 00:54:59;;;;;;;9.82;2.50;;;;;;;15.93;48.23;63646.78;5024322;28;20202;-78
2023/12/03 00:57:26;;;;;;;7.20;2.92;;;;;;;15.95;48.76;63646.28;5016474;28;20225;-78
2023/12/03 00:59:53;;;;;;;13.57;3.40;;;;;;;15.92;49.08;63641.13;5028118;28;20554;-80
2023/12/03 01:02:20;;;;;;;9.82;3.42;;;;;;;15.94;48.83;63648.34;5017012;28;20236;-79
2023/12/03 01:04:49;;;;;;;16.98;2.55;;;;;;;15.90;48.94;63641.63;5020230;28;20385;-79
2023/12/03 01:07:15;;;;;;;12.70;2.78;;;;;;;15.94;48.96;63643.22;5027685;28;20546;-80
2023/12/03 01:09:42;;;;;;;7.57;2.00;;;;;;;15.96;48.73;63644.78;5026423;28;20273;-79
2023/12/03 01:12:10;;;;;;;9.27;3.47;;;;;;;15.94;48.90;63645.78;5009276;28;20250;-79
2023/12/03 01:14:37;;;;;;;10.38;2.83;;;;;;;15.87;49.11;63635.41;5027803;28;20229;-78
2023/12/03 01:17:04;;;;;;;5.53;3.10;;;;;;;15.91;49.37;63637.00;5025725;28;20222;-77
2023/12/03 01:19:31;;;;;;;11.15;2.25;;;;;;;15.93;49.36;63644.19;5021953;28;20245;-76
2023/12/03 01:21:59;;;;;;;11.38;3.28;;;;;;;15.92;49.40;63643.19;5024415;28;20722;-76
2023/12/03 01:24:26;;;;;;;15.80;3.05;;;;;;;15.89;49.41;63643.13;5027843;28;20408;-79
2023/12/03 01:26:53;;;;;;;8.65;2.25;;;;;;;15.93;49.69;63639.59;5019509;28;20217;-77
2023/12/03 01:29:20;;;;;;;13.02;2.60;;;;;;;15.94;49.60;63640.66;5025606;28;20389;-78
2023/12/03 01:31:47;;;;;;;24.02;3.33;;;;;;;15.90;49.55;63639.03;5022000;28;20241;-78
2023/12/03 01:34:14;;;;;;;16.23;2.55;;;;;;;15.89;49.50;63643.13;5025842;28;20205;-76
2023/12/03 01:36:41;;;;;;;6.43;2.20;;;;;;;15.90;49.50;63635.94;5024330;28;20222;-78
2023/12/03 01:39:09;;;;;;;8.05;2.88;;;;;;;15.94;49.73;63648.34;5022867;28;20214;-77
2023/12/03 01:41:36;;;;;;;10.52;3.53;;;;;;;15.91;49.65;63642.13;5013841;28;20386;-77
2023/12/03 01:44:03;;;;;;;11.73;3.13;;;;;;;15.91;49.59;63642.13;5024461;28;20542;-77
2023/12/03 01:46:30;;;;;;;12.30;2.63;;;;;;;15.85;50.34;63635.88;5022428;28;20209;-76
2023/12/03 01:48:57;;;;;;;11.63;3.17;;;;;;;15.87;49.99;63635.94;5019306;28;20217;-77
2023/12/03 01:51:25;;;;;;;10.07;2.58;;;;;;;15.90;49.99;63646.22;5025640;28;20225;-77
2023/12/03 01:53:52;;;;;;;8.00;3.00;;;;;;;15.90;49.91;63639.03;5026859;28;20202;-76
2023/12/03 01:56:21;;;;;;;8.90;2.72;;;;;;;15.86;50.11;63637.44;5025472;28;20199;-76
2023/12/03 01:58:47;;;;;;;16.70;2.80;;;;;;;15.90;49.92;63641.09;5028186;28;20270;-77
2023/12/03 02:01:14;;;;;;;10.70;2.42;;;;;;;15.90;49.91;63639.03;5027652;28;20241;-77
2023/12/03 02:03:42;;;;;;;7.57;2.33;;;;;;;15.86;50.24;63639.50;5025934;28;20278;-78
2023/12/03 02:06:11;;;;;;;15.77;2.08;;;;;;;15.88;49.67;63639.00;5017715;28;20245;-78
2023/12/03 02:08:38;;;;;;;4.50;2.08;;;;;;;15.88;49.86;63639.53;5028962;28;20229;-78
2023/12/03 02:11:07;;;;;;;11.55;2.55;;;;;;;15.91;49.25;63644.72;5027226;28;20213;-77
2023/12/03 02:13:37;;;;;;;10.88;2.35;;;;;;;15.95;49.66;63646.81;5026712;28;20234;-77
2023/12/03 02:16:05;;;;;;;18.60;2.53;;;;;;;15.89;49.38;63637.50;5028571;28;20218;-78
2023/12/03 02:18:33;;;;;;;11.80;2.33;;;;;;;15.88;49.25;63639.00;5028191;28;20222;-78
2023/12/03 02:21:00;;;;;;;14.77;2.80;;;;;;;15.90;49.33;63641.63;5026360;28;20201;-77
2023/12/03 02:23:30;;;;;;;12.77;2.97;;;;;;;15.94;49.62;63647.81;5028080;28;20226;-77
2023/12/03 02:25:57;;;;;;;10.63;3.08;;;;;;;15.95;49.65;63643.72;5025924;28;20198;-77
2023/12/03 02:28:24;;;;;;;11.43;3.10;;;;;;;15.95;49.20;63641.16;5028911;28;20226;-77
2023/12/03 02:30:51;;;;;;;7.20;2.45;;;;;;;15.90;49.41;63638.53;5027869;28;20265;-79
2023/12/03 02:33:18;;;;;;;6.97;2.22;;;;;;;15.86;50.03;63637.44;5026387;28;20234;-78
2023/12/03 02:35:45;;;;;;;7.80;2.33;;;;;;;15.84;50.30;63632.28;5030420;28;20225;-78
2023/12/03 02:38:12;;;;;;;8.95;1.90;;;;;;;15.86;49.79;63634.34;5029780;28;20233;-77
2023/12/03 02:40:41;;;;;;;14.57;2.88;;;;;;;15.79;49.91;63627.09;5025543;28;20214;-78
2023/12/03 02:43:07;;;;;;;14.45;2.60;;;;;;;15.92;50.01;63645.75;5021899;28;20269;-78
2023/12/03 02:45:34;;;;;;;12.55;2.65;;;;;;;15.83;49.93;63633.81;5023970;28;20198;-78
2023/12/03 02:48:01;;;;;;;6.70;2.58;;;;;;;15.90;49.91;63641.63;5027189;28;20265;-77
2023/12/03 02:50:28;;;;;;;9.77;2.10;;;;;;;15.86;50.39;63637.44;5025369;28;20222;-76
2023/12/03 02:52:55;;;;;;;8.00;2.28;;;;;;;15.86;50.38;63634.34;5027696;28;20234;-77
2023/12/03 02:55:22;;;;;;;15.60;2.45;;;;;;;15.73;50.86;63620.84;5025706;28;20199;-75
2023/12/03 02:57:50;;;;;;;6.43;2.17;;;;;;;15.79;50.39;63622.47;5026152;28;20566;-74
2023/12/03 03:00:18;;;;;;;13.80;3.35;;;;;;;15.79;50.90;63629.66;5024036;28;20206;-77
2023/12/03 03:02:45;;;;;;;14.32;2.80;;;;;;;15.74;51.12;63622.41;5015709;28;20285;-74
2023/12/03 03:05:12;;;;;;;11.90;2.42;;;;;;;15.71;51.21;63621.84;5026221;28;20476;-77
2023/12/03 03:07:39;;;;;;;10.27;2.13;;;;;;;15.73;51.06;63625.97;5024128;28;20649;-76
2023/12/03 03:10:07;;;;;;;12.98;2.95;;;;;;;15.72;51.33;63624.94;5027712;28;20364;-76
2023/12/03 03:12:34;;;;;;;4.05;2.65;;;;;;;15.68;51.67;63615.66;5024077;28;20233;-75
2023/12/03 03:15:03;;;;;;;4.53;1.92;;;;;;;15.76;51.04;63623.97;5026918;28;20209;-76
2023/12/03 03:17:30;;;;;;;14.38;2.20;;;;;;;15.71;51.22;63621.84;5015706;28;20241;-75
2023/12/03 03:19:57;;;;;;;14.85;3.45;;;;;;;15.71;51.52;63621.34;5025427;28;20222;-74
2023/12/03 03:22:24;;;;;;;17.45;3.08;;;;;;;15.65;51.46;63612.53;5026848;28;20378;-76
2023/12/03 03:24:52;;;;;;;13.55;3.08;;;;;;;15.72;51.65;63619.81;5025545;28;20209;-74
2023/12/03 03:27:19;;;;;;;7.65;1.92;;;;;;;15.64;51.82;63611.50;5023981;28;20288;-74
2023/12/03 03:29:46;;;;;;;10.80;2.38;;;;;;;15.68;51.67;63616.19;5018273;28;20211;-75
2023/12/03 03:32:14;;;;;;;12.05;2.63;;;;;;;15.67;52.04;63620.25;5025491;28;20358;-74
2023/12/03 03:34:41;;;;;;;10.77;2.83;;;;;;;15.65;52.29;63613.03;5014160;28;20221;-74
2023/12/03 03:37:08;;;;;;;13.00;2.58;;;;;;;15.65;52.23;63609.97;5026661;28;20623;-75
2023/12/03 03:39:35;;;;;;;17.48;2.78;;;;;;;15.63;52.31;63613.53;5013271;28;20514;-77
2023/12/03 03:42:03;;;;;;;8.40;2.55;;;;;;;15.59;52.68;63606.28;5025245;28;20226;-77
2023/12/03 03:44:30;;;;;;;14.40;3.25;;;;;;;15.57;52.93;63609.34;5024829;28;20203;-77
2023/12/03 03:46:57;;;;;;;18.40;3.03;;;;;;;15.57;52.72;63611.91;5026463;28;20226;-74
2023/12/03 03:49:25;;;;;;;6.85;2.25;;;;;;;15.55;52.77;63604.72;5015875;28;20585;-76
2023/12/03 03:51:52;;;;;;;11.65;3.78;;;;;;;15.61;52.80;63613.50;5024581;28;20242;-76
2023/12/03 03:54:19;;;;;;;14.77;2.90;;;;;;;15.59;53.06;63609.38;5024366;28;20503;-75
2023/12/03 03:56:47;;;;;;;9.07;2.35;;;;;;;15.60;52.98;63607.84;5023526;28;20222;-77
2023/12/03 03:59:14;;;;;;;9.55;2.75;;;;;;;15.55;53.70;63605.22;5018081;28;20209;-75
2023/12/03 04:01:44;;;;;;;12.20;2.83;;;;;;;15.59;53.02;63608.84;5023228;28;20397;-77
2023/12/03 04:04:11;;;;;;;9.45;2.30;;;;;;;15.65;53.07;63615.09;5025311;28;20513;-76
2023/12/03 04:06:41;;;;;;;13.98;2.67;;;;;;;15.62;53.37;63609.94;5019600;28;20218;-77
2023/12/03 04:09:08;;;;;;;13.10;2.38;;;;;;;15.52;53.70;63596.44;5022148;28;20265;-76
2023/12/03 04:11:39;;;;;;;13.63;2.88;;;;;;;15.49;53.80;63598.47;5011073;28;20531;-76
2023/12/03 04:14:07;;;;;;;6.00;2.63;;;;;;;15.49;53.72;63601.03;5017390;28;20227;-76
2023/12/03 04:16:34;;;;;;;12.70;2.67;;;;;;;15.46;53.91;63595.84;5020201;28;20229;-76
2023/12/03 04:19:02;;;;;;;7.88;2.85;;;;;;;15.47;53.50;63596.91;5018421;28;20203;-76
2023/12/03 04:21:29;;;;;;;8.40;2.95;;;;;;;15.51;53.46;63601.06;5017210;28;20205;-76
2023/12/03 04:23:58;;;;;;;15.35;3.90;;;;;;;15.53;53.38;63598.00;5015956;28;20245;-76
2023/12/03 04:26:25;;;;;;;16.77;3.20;;;;;;;15.50;53.57;63600.03;5021901;28;20194;-75
2023/12/03 04:28:53;;;;;;;15.52;2.75;;;;;;;15.55;53.27;63607.78;5013779;28;20244;-76
2023/12/03 04:31:21;;;;;;;13.68;2.92;;;;;;;15.62;53.04;63617.09;5021217;28;20309;-77
2023/12/03 04:33:49;;;;;;;7.50;2.58;;;;;;;15.66;53.03;63614.09;5025309;28;20277;-77
2023/12/03 04:36:16;;;;;;;9.30;3.40;;;;;;;15.64;53.10;63616.63;5022078;28;20296;-76
2023/12/03 04:38:44;;;;;;;10.07;2.17;;;;;;;15.74;52.62;63624.44;5016862;28;20221;-76
2023/12/03 04:41:12;;;;;;;12.48;1.92;;;;;;;15.70;53.01;63623.38;5016536;28;20263;-76
2023/12/03 04:43:39;;;;;;;12.73;3.45;;;;;;;15.70;53.24;63615.16;5023421;28;20218;-76
2023/12/03 04:46:07;;;;;;;21.35;3.78;;;;;;;15.60;53.18;63612.47;5022777;28;20202;-75
2023/12/03 04:48:35;;;;;;;10.52;2.65;;;;;;;15.53;53.93;63600.56;5025078;28;20241;-76
2023/12/03 04:51:03;;;;;;;12.55;3.30;;;;;;;15.52;54.20;63599.00;5022254;28;20205;-76
2023/12/03 04:53:30;;;;;;;14.90;3.78;;;;;;;15.39;54.71;63583.44;5023412;28;20241;-75
2023/12/03 04:55:57;;;;;;;18.98;4.25;;;;;;;15.26;55.52;63575.06;5024747;28;20217;-76
2023/12/03 04:58:26;;;;;;;14.38;3.60;;;;;;;14.93;57.32;63538.19;5024762;28;20237;-76
2023/12/03 05:00:53;;;;;;;21.65;3.72;;;;;;;14.83;57.41;63530.91;5017047;28;20203;-76
2023/12/03 05:03:20;;;;;;;17.17;3.35;;;;;;;14.60;58.88;63504.44;5005368;28;20228;-76
2023/12/03 05:05:47;;;;;;;11.95;3.58;;;;;;;14.36;60.32;63484.13;5018957;28;20278;-76
2023/12/03 05:08:15;;;;;;;11.77;3.45;;;;;;;14.17;61.81;63464.88;5019259;28;20680;-76
2023/12/03 05:10:42;;;;;;;18.05;3.10;;;;;;;13.98;63.74;63440.03;5023650;28;20302;-75
2023/12/03 05:13:08;;;;;;;12.60;2.95;;;;;;;13.60;67.80;63400.59;5023075;28;20237;-76
2023/12/03 05:15:37;;;;;;;10.25;3.90;;;;;;;12.92;76.26;63332.59;5016339;28;20218;-76
2023/12/03 05:18:05;;;;;;;11.05;2.58;;;;;;;12.46;81.92;63280.81;5021719;28;20231;-76
2023/12/03 05:20:32;;;;;;;8.38;2.75;;;;;;;12.33;87.34;63269.91;5005835;28;20227;-75
2023/12/03 05:22:59;;;;;;;11.88;2.85;;;;;;;12.10;92.93;63245.53;5016888;28;20230;-74
2023/12/03 05:25:27;;;;;;;13.90;2.65;;;;;;;11.85;98.92;63222.19;5016316;28;20237;-75
2023/12/03 05:27:54;;;;;;;10.00;2.78;;;;;;;11.74;100.00;63210.78;5028707;28;20449;-75
2023/12/03 05:30:21;;;;;;;6.65;2.22;;;;;;;11.64;100.00;63203.50;5030379;28;20191;-74
2023/12/03 05:32:50;;;;;;;10.57;2.38;;;;;;;11.44;100.00;63180.22;5018248;28;20274;-74
2023/12/03 05:35:17;;;;;;;15.20;3.15;;;;;;;11.44;100.00;63178.16;5024677;28;20266;-75
2023/12/03 05:37:44;;;;;;;12.27;3.50;;;;;;;11.39;100.00;63175.00;5030302;28;20523;-75
2023/12/03 05:40:11;;;;;;;12.63;3.03;;;;;;;11.41;100.00;63180.16;5029335;28;20198;-75
2023/12/03 05:42:38;;;;;;;8.00;2.53;;;;;;;11.47;100.00;63183.31;5030419;28;20234;-76
2023/12/03 05:45:07;;;;;;;15.30;2.90;;;;;;;11.46;100.00;63180.25;5028577;28;20256;-75
2023/12/03 05:47:35;;;;;;;6.03;2.30;;;;;;;11.34;100.00;63172.38;5031219;28;20542;-76
2023/12/03 05:50:04;;;;;;;13.48;2.97;;;;;;;11.41;100.00;63174.53;5027094;28;20237;-75
2023/12/03 05:52:31;;;;;;;13.23;2.75;;;;;;;11.52;100.00;63189.00;5029147;28;20226;-75
2023/12/03 05:54:58;;;;;;;9.65;2.20;;;;;;;11.53;100.00;63186.97;5026826;28;20225;-74
2023/12/03 05:57:26;;;;;;;7.85;3.05;;;;;;;11.54;100.00;63190.56;5028382;28;20225;-75
2023/12/03 05:59:53;;;;;;;10.60;2.42;;;;;;;11.59;100.00;63195.75;5028710;28;20269;-75
2023/12/03 06:02:20;;;;;;;11.05;3.00;;;;;;;11.65;100.00;63201.97;5027810;28;20230;-75
2023/12/03 06:04:47;;;;;;;8.90;2.83;;;;;;;11.76;100.00;63213.38;5029649;28;20273;-75
2023/12/03 06:07:16;;;;;;;9.15;3.10;;;;;;;11.86;100.00;63220.66;5028240;28;20265;-74
2023/12/03 06:09:43;;;;;;;8.20;2.85;;;;;;;11.89;100.00;63229.38;5027659;28;20206;-74
2023/12/03 06:12:09;;;;;;;9.77;2.97;;;;;;;11.80;100.00;63217.53;5026105;28;20227;-75
2023/12/03 06:14:36;;;;;;;6.57;3.22;;;;;;;11.89;100.00;63229.38;5028533;28;20269;-74
2023/12/03 06:17:03;;;;;;;5.82;3.10;;;;;;;11.93;100.00;63225.88;5032778;28;20228;-75
2023/12/03 06:19:31;;;;;;;8.23;2.78;;;;;;;11.95;100.00;63230.00;5017661;28;20246;-75
2023/12/03 06:21:58;;;;;;;11.77;3.20;;;;;;;12.00;100.00;63235.16;5026729;28;20218;-74
2023/12/03 06:24:27;;;;;;;10.52;3.05;;;;;;;12.03;100.00;63241.34;5028972;28;20213;-75
2023/12/03 06:26:54;;;;;;;11.13;3.30;;;;;;;12.03;100.00;63235.75;5022695;28;20229;-74
2023/12/03 06:29:22;;;;;;;4.97;2.38;;;;;;;12.05;100.00;63245.97;5028304;28;20202;-74
2023/12/03 06:31:49;;;;;;;7.75;2.33;;;;;;;12.01;100.00;63236.22;5019576;28;20550;-74
2023/12/03 06:34:16;;;;;;;7.50;3.08;;;;;;;11.97;100.00;63234.63;5022918;28;20227;-75
2023/12/03 06:36:43;;;;;;;15.23;4.25;;;;;;;11.88;100.00;63223.25;5025557;28;20288;-74
2023/12/03 06:39:10;;;;;;;8.70;3.67;;;;;;;11.94;100.00;63232.03;5024147;28;20202;-74
2023/12/03 06:41:39;;;;;;;14.38;3.42;;;;;;;11.93;100.00;63230.47;5026982;28;20254;-74
2023/12/03 06:44:06;;;;;;;7.28;2.95;;;;;;;11.89;100.00;63221.22;5018457;28;20207;-75
2023/12/03 06:46:39;;;;;;;12.30;4.00;;;;;;;11.79;100.00;63216.47;5018285;28;20495;-76
2023/12/03 06:49:06;;;;;;;5.35;3.42;;;;;;;11.78;100.00;63209.81;5026612;28;20229;-75
2023/12/03 06:51:33;;;;;;;10.32;4.40;;;;;;;11.77;100.00;63211.84;5026837;28;20211;-75
2023/12/03 06:54:01;;;;;;;14.32;3.63;;;;;;;11.70;100.00;63204.09;5011440;28;20266;-74
2023/12/03 06:56:28;;;;;;;16.58;4.40;;;;;;;11.71;100.00;63203.09;5015712;28;20203;-76
2023/12/03 06:58:56;;;;;;;5.43;2.78;;;;;;;11.79;100.00;63215.97;5026698;28;20277;-78
2023/12/03 07:01:24;;;;;;;9.48;3.58;;;;;;;11.72;100.00;63206.16;5024891;28;20475;-75
2023/12/03 07:03:50;;;;;;;9.10;4.07;;;;;;;11.75;100.00;63212.34;5019673;28;20214;-73
2023/12/03 07:06:17;;;;;;;10.27;3.10;;;;;;;11.77;100.00;63216.97;5014286;28;20510;-76
2023/12/03 07:08:44;;;;;;;14.75;5.07;;;;;;;11.75;100.00;63212.34;5023131;28;20210;-75
2023/12/03 07:11:13;;;;;;;16.13;4.90;;;;;;;11.77;100.00;63211.34;5025610;28;20486;-75
2023/12/03 07:13:40;;;;;;;10.82;4.25;;;;;;;11.79;100.00;63213.41;5024619;28;20234;-75
2023/12/03 07:16:10;;;;;;;13.00;3.97;;;;;;;11.77;100.00;63211.34;5025653;28;20209;-75
2023/12/03 07:18:38;;;;;;;12.93;3.67;;;;;;;11.77;100.00;63219.00;5010124;28;20237;-74
2023/12/03 07:21:05;;;;;;;11.48;3.40;;;;;;;11.58;100.00;63192.66;5022541;28;20211;-75
2023/12/03 07:23:32;;;;;;;13.82;6.18;;;;;;;11.59;100.00;63193.19;5023505;28;20226;-75
2023/12/03 07:25:59;;;;;;;18.00;5.45;;;;;;;11.68;100.00;63204.56;5018925;28;20211;-76
2023/12/03 07:28:26;;;;;;;11.82;5.00;;;;;;;11.66;100.00;63202.50;5024332;28;20253;-74
2023/12/03 07:30:53;;;;;;;24.73;8.73;;;;;;;11.70;100.00;63204.09;5024024;28;20484;-75
2023/12/03 07:33:21;;;;;;;23.20;7.93;;;;;;;11.66;100.00;63202.50;5026124;28;20238;-74
2023/12/03 07:35:48;;;;;;;23.38;7.50;;;;;;;11.55;100.00;63189.03;5020914;28;20223;-76
2023/12/03 07:38:15;;;;;;;21.60;6.57;;;;;;;11.47;100.00;63185.88;5026471;28;20226;-75
2023/12/03 07:40:43;;;;;;;20.58;6.95;;;;;;;11.53;100.00;63192.59;5022019;28;20290;-75
2023/12/03 07:43:10;;;;;;;17.38;4.38;;;;;;;11.49;100.00;63183.34;5019411;28;20291;-76
2023/12/03 07:45:37;;;;;;;11.88;3.88;;;;;;;11.46;100.00;63184.81;5006751;28;20211;-75
2023/12/03 07:48:05;;;;;;;5.72;3.00;;;;;;;11.48;100.00;63184.88;5023180;28;20310;-74
2023/12/03 07:50:33;;;;;;;14.25;4.38;;;;;;;11.32;100.00;63165.22;5019441;28;20260;-74
2023/12/03 07:53:00;;;;;;;8.25;4.00;;;;;;;11.24;100.00;63154.91;5025197;28;20246;-75
2023/12/03 07:55:27;;;;;;;20.50;4.40;;;;;;;11.22;100.00;63155.38;5023176;28;20618;-75
2023/12/03 07:57:54;;;;;;;7.65;4.38;;;;;;;11.12;100.00;63145.03;5027726;28;20227;-75
2023/12/03 08:00:21;;;;;;;8.93;3.60;;;;;;;10.91;100.00;63130.94;5025451;28;20221;-75
2023/12/03 08:02:48;;;;;;;10.55;3.95;;;;;;;10.87;100.00;63119.13;5025160;28;20265;-76
2023/12/03 08:05:15;;;;;;;12.85;4.53;;;;;;;10.81;100.00;63115.47;5014687;28;20219;-75
2023/12/03 08:07:44;;;;;;;8.70;4.05;;;;;;;10.74;100.00;63110.78;5022318;28;20249;-75
2023/12/03 08:10:11;;;;;;;10.75;3.55;;;;;;;10.69;100.00;63100.50;5024315;28;20205;-75
2023/12/03 08:12:38;;;;;;;8.05;4.13;;;;;;;10.68;100.00;63098.97;5018908;28;20241;-75
2023/12/03 08:15:05;;;;;;;8.18;4.63;;;;;;;10.65;100.00;63100.97;5018371;28;20230;-73
2023/12/03 08:17:32;;;;;;;10.45;4.75;;;;;;;10.66;100.00;63099.44;5019635;28;20219;-74
2023/12/03 08:19:59;;;;;;;10.70;4.28;;;;;;;10.63;100.00;63094.28;5013576;28;20202;-75
2023/12/03 08:22:26;;;;;;;6.07;4.13;;;;;;;10.63;100.00;63094.28;5020713;28;20277;-73
2023/12/03 08:24:57;;;;;;;11.73;5.03;;;;;;;10.28;100.00;63058.59;5018580;28;20228;-74
2023/12/03 08:27:25;;;;;;;8.43;5.22;;;;;;;9.85;100.00;63016.66;5014654;28;20290;-72
2023/12/03 08:29:52;;;;;;;11.13;5.15;;;;;;;9.79;100.00;63004.81;5024066;28;20267;-73
2023/12/03 08:32:20;;;;;;;9.38;5.00;;;;;;;9.72;100.00;63005.22;5021946;28;20289;-74
2023/12/03 08:34:49;;;;;;;12.68;5.47;;;;;;;9.58;100.00;62988.69;5001863;28;20247;-74
2023/12/03 08:37:17;;;;;;;8.18;5.82;;;;;;;9.59;100.00;62989.75;5001818;28;20580;-73
2023/12/03 08:39:46;;;;;;;10.65;6.75;;;;;;;9.46;100.00;62971.22;4999737;28;20202;-75
2023/12/03 08:42:16;;;;;;;10.18;7.30;;;;;;;9.33;100.00;62963.38;5017377;28;20242;-75
2023/12/03 08:44:46;;;;;;;8.20;5.88;;;;;;;8.88;100.00;62916.88;5023132;28;20249;-76
2023/12/03 08:47:13;;;;;;;15.90;8.95;;;;;;;8.60;100.00;62887.41;5019309;28;20531;-72
2023/12/03 08:49:41;;;;;;;12.32;8.63;;;;;;;8.46;100.00;62870.91;5024358;28;20226;-74
2023/12/03 08:52:11;;;;;;;9.77;8.48;;;;;;;8.63;100.00;62893.06;5021619;28;20238;-74
2023/12/03 08:54:38;;;;;;;15.25;8.68;;;;;;;8.75;100.00;62905.47;5023422;28;20305;-74
2023/12/03 08:57:06;;;;;;;11.10;8.90;;;;;;;8.48;100.00;62875.53;5021593;28;20280;-74
2023/12/03 08:59:35;;;;;;;9.70;7.68;;;;;;;8.19;100.00;62840.47;5023359;28;20768;-74
2023/12/03 09:02:02;;;;;;;18.60;11.63;;;;;;;7.89;100.00;62814.56;5014879;28;20227;-75
2023/12/03 09:04:29;;;;;;;15.68;11.40;;;;;;;7.87;100.00;62812.50;5016039;28;20290;-73
2023/12/03 09:06:56;;;;;;;19.40;12.93;;;;;;;7.41;100.00;62763.00;5021885;28;20564;-74
2023/12/03 09:09:23;;;;;;;14.93;11.35;;;;;;;7.34;100.00;62758.31;5023529;28;20214;-74
2023/12/03 09:11:50;;;;;;;14.32;11.32;;;;;;;7.24;100.00;62748.00;5014360;28;20231;-74
2023/12/03 09:14:16;;;;;;;16.45;11.57;;;;;;;7.26;100.00;62750.06;5014042;28;20234;-73
2023/12/03 09:16:45;;;;;;;15.65;9.90;;;;;;;6.93;100.00;62714.00;5015500;28;20226;-73
2023/12/03 09:19:12;;;;;;;14.77;9.70;;;;;;;6.78;100.00;62700.53;5022383;28;20270;-73
2023/12/03 09:21:38;;;;;;;16.77;10.70;;;;;;;6.75;100.00;62692.38;5014038;28;20222;-73
2023/12/03 09:24:06;;;;;;;13.25;9.10;;;;;;;6.84;100.00;62701.66;5018789;28;20223;-73
2023/12/03 09:26:33;;;;;;;13.70;9.80;;;;;;;6.90;100.00;62708.34;5009491;28;20200;-74
2023/12/03 09:29:00;;;;;;;15.00;9.32;;;;;;;6.91;100.00;62713.94;5021271;28;20199;-73
2023/12/03 09:31:27;;;;;;;15.73;10.68;;;;;;;6.95;100.00;62718.06;5022937;28;20218;-73
2023/12/03 09:33:55;;;;;;;14.43;8.45;;;;;;;7.00;100.00;62718.16;5020662;28;20455;-73
2023/12/03 09:36:22;;;;;;;14.90;8.40;;;;;;;7.01;100.00;62724.25;5019066;28;20202;-74
2023/12/03 09:38:49;;;;;;;13.60;8.65;;;;;;;7.00;100.00;62723.22;5022508;28;20234;-73
2023/12/03 09:41:19;;;;;;;11.13;7.72;;;;;;;6.76;100.00;62693.94;5021736;28;20206;-75
2023/12/03 09:43:48;;;;;;;9.90;8.40;;;;;;;6.75;100.00;62692.38;5020025;28;20209;-74
2023/12/03 09:46:14;;;;;;;10.52;8.48;;;;;;;6.78;100.00;62695.47;5023446;28;20214;-73
2023/12/03 09:48:43;;;;;;;11.18;9.27;;;;;;;6.76;100.00;62693.94;5019257;28;20225;-75
2023/12/03 09:51:13;;;;;;;8.98;7.22;;;;;;;6.78;100.00;62701.03;5017872;28;20202;-74
2023/12/03 09:53:44;;;;;;;9.90;8.27;;;;;;;6.85;100.00;62707.75;5011754;28;20282;-74
2023/12/03 09:56:13;;;;;;;8.65;7.15;;;;;;;6.63;100.00;62685.06;5021718;28;20250;-73
2023/12/03 09:58:42;;;;;;;9.75;7.68;;;;;;;6.60;100.00;62682.47;5021433;28;20226;-73
2023/12/03 10:01:09;;;;;;;11.63;8.60;;;;;;;6.43;100.00;62662.44;5017151;28;20219;-74
2023/12/03 10:03:36;;;;;;;9.13;7.47;;;;;;;6.40;100.00;62661.84;5015076;28;20226;-74
2023/12/03 10:06:04;;;;;;;13.15;8.48;;;;;;;6.31;100.00;62650.06;5022938;28;20215;-74
2023/12/03 10:08:33;;;;;;;13.05;8.90;;;;;;;6.25;100.00;62645.88;5021091;28;20393;-74
2023/12/03 10:11:02;;;;;;;13.35;10.13;;;;;;;6.21;100.00;62639.22;5020682;28;20372;-74
2023/12/03 10:13:34;;;;;;;10.65;8.07;;;;;;;6.03;100.00;62618.13;5021712;28;20222;-75
2023/12/03 10:16:01;;;;;;;12.18;8.32;;;;;;;5.95;100.00;62610.41;5024522;28;20223;-76
2023/12/03 10:18:28;;;;;;;12.00;8.90;;;;;;;5.90;100.00;62610.31;5025187;28;20242;-74
2023/12/03 10:21:08;;;;;;;8.02;7.22;;;;;;;5.88;100.00;62603.72;5027082;28;20215;-77
2023/12/03 10:23:37;;;;;;;9.80;8.25;;;;;;;5.88;100.00;62607.75;5027089;28;20226;-76
2023/12/03 10:26:11;;;;;;;7.60;6.93;;;;;;;5.81;100.00;62595.97;5024876;28;20496;-77
2023/12/03 10:28:39;;;;;;;9.55;7.88;;;;;;;5.72;100.00;62586.69;5024182;28;20589;-75
2023/12/03 10:31:07;;;;;;;8.18;6.88;;;;;;;5.70;100.00;62585.16;5026551;28;20210;-76
2023/12/03 10:33:34;;;;;;;16.38;10.70;;;;;;;5.56;100.00;62570.19;5024306;28;20294;-77
2023/12/03 10:36:05;;;;;;;13.57;10.02;;;;;;;5.52;100.00;62573.66;5013619;28;20276;-77
2023/12/03 10:38:41;;;;;;;5.72;5.18;;;;;;;5.42;100.00;62561.34;5026407;28;20250;-75
2023/12/03 10:41:09;;;;;;;7.25;5.80;;;;;;;5.45;100.00;62564.44;5026179;28;20202;-74
2023/12/03 10:43:38;;;;;;;8.10;6.90;;;;;;;5.18;100.00;62536.63;5021511;28;20391;-75
2023/12/03 10:46:06;;;;;;;12.75;6.97;;;;;;;5.20;100.00;62533.63;5026974;28;20226;-77
2023/12/03 10:48:34;;;;;;;8.50;6.90;;;;;;;5.11;100.00;62526.88;5026031;28;20234;-77
2023/12/03 10:51:05;;;;;;;8.18;7.13;;;;;;;5.11;100.00;62528.91;5024021;28;20209;-77
2023/12/03 10:53:33;;;;;;;9.82;7.05;;;;;;;5.12;100.00;62525.41;5016419;28;20466;-77
2023/12/03 10:56:03;;;;;;;13.75;8.82;;;;;;;5.10;100.00;62525.88;5026422;28;20355;-76
2023/12/03 10:58:31;;;;;;;10.93;7.07;;;;;;;5.13;100.00;62528.94;5024090;28;20230;-75
2023/12/03 11:01:02;;;;;;;10.40;7.90;;;;;;;5.16;100.00;62529.00;5026336;28;20386;-76
2023/12/03 11:03:40;;;;;;;10.50;8.18;;;;;;;5.00;100.00;62515.56;5020438;28;20227;-75
2023/12/03 11:06:09;;;;;;;13.23;8.43;;;;;;;4.95;100.00;62502.84;5020832;28;20202;-75
2023/12/03 11:08:38;;;;;;;10.75;8.20;;;;;;;4.97;100.00;62515.00;5020200;28;20222;-75
2023/12/03 11:11:08;;;;;;;9.32;6.75;;;;;;;5.11;100.00;62521.34;5022742;28;20222;-76
2023/12/03 11:13:36;;;;;;;12.38;8.82;;;;;;;5.09;100.00;62522.31;5022775;28;20222;-76
2023/12/03 11:16:05;;;;;;;11.20;8.07;;;;;;;5.12;100.00;62527.94;5021812;28;20234;-77
2023/12/03 11:18:34;;;;;;;11.38;8.68;;;;;;;4.84;100.00;62499.09;5019342;28;20230;-75
2023/12/03 11:21:14;;;;;;;13.65;9.63;;;;;;;4.96;100.00;62511.44;5018325;28;20194;-77
2023/12/03 11:24:03;;;;;;;13.75;10.32;;;;;;;5.07;100.00;62524.78;5021970;28;20495;-75
2023/12/03 11:26:31;;;;;;;18.77;10.48;;;;;;;5.03;100.00;62518.66;5019516;28;20240;-76